Time;durP1;ratioP1;P1;durP2;ratioP2;P2;SDS_P1;SDS_P2;PMS_P1;PMS_P2;Temp;Humidity;BMP_temperature;BMP_pressure;BME280_temperature;BME280_humidity;BME280_pressure;Samples;Min_cycle;Max_cycle;Signal;HPM_P1;HPM_P2
2022/11/07 00:00:42;;;;;;;16.47;7.83;;;12.50;44.30;;;;;;5051745;28;20169;-44
2022/11/07 00:03:08;;;;;;;15.10;9.23;;;12.50;44.40;;;;;;5051719;28;20169;-44
2022/11/07 00:05:34;;;;;;;13.83;8.57;;;12.50;44.30;;;;;;5051269;28;20250;-43
2022/11/07 00:07:59;;;;;;;15.40;9.17;;;12.50;44.30;;;;;;5051304;28;20620;-43
2022/11/07 00:10:25;;;;;;;11.77;8.00;;;12.50;44.30;;;;;;5051586;28;20166;-43
2022/11/07 00:12:51;;;;;;;9.93;7.63;;;12.50;44.40;;;;;;5051626;28;20237;-45
2022/11/07 00:15:17;;;;;;;12.23;9.23;;;12.60;44.40;;;;;;5051498;28;20660;-44
2022/11/07 00:17:42;;;;;;;11.70;8.60;;;12.60;44.40;;;;;;5049749;28;20540;-42
2022/11/07 00:20:08;;;;;;;13.47;8.97;;;12.60;44.40;;;;;;5051597;28;20165;-44
2022/11/07 00:22:34;;;;;;;15.65;9.90;;;12.60;44.20;;;;;;5051501;28;20170;-43
2022/11/07 00:25:00;;;;;;;14.87;9.80;;;12.60;44.30;;;;;;5051456;28;20676;-42
2022/11/07 00:27:26;;;;;;;19.67;9.30;;;12.60;44.30;;;;;;5050766;28;20198;-44
2022/11/07 00:29:51;;;;;;;14.43;8.10;;;12.60;44.50;;;;;;5052614;28;20162;-44
2022/11/07 00:32:17;;;;;;;15.70;8.70;;;12.60;44.50;;;;;;5055255;28;20165;-44
2022/11/07 00:34:43;;;;;;;12.30;8.73;;;12.50;44.50;;;;;;5055237;28;20196;-44
2022/11/07 00:37:08;;;;;;;12.90;8.80;;;12.60;44.50;;;;;;5054373;28;20263;-43
2022/11/07 00:39:34;;;;;;;13.97;9.40;;;12.60;44.70;;;;;;5055345;28;20218;-43
2022/11/07 00:42:00;;;;;;;12.07;9.33;;;12.60;45.00;;;;;;5053799;28;20641;-43
2022/11/07 00:44:25;;;;;;;11.80;8.97;;;12.60;45.10;;;;;;5055096;28;20177;-44
2022/11/07 00:46:51;;;;;;;17.40;11.60;;;12.50;45.10;;;;;;5054236;28;20205;-44
2022/11/07 00:49:17;;;;;;;14.53;10.43;;;12.60;45.20;;;;;;5054902;28;20166;-43
2022/11/07 00:51:43;;;;;;;14.20;9.23;;;12.60;45.40;;;;;;5055086;28;20672;-44
2022/11/07 00:54:09;;;;;;;12.83;9.53;;;12.60;45.50;;;;;;5054945;28;20182;-42
2022/11/07 00:56:35;;;;;;;13.90;9.47;;;12.60;45.50;;;;;;5054104;28;20665;-43
2022/11/07 00:59:01;;;;;;;12.83;9.20;;;12.60;45.60;;;;;;5054718;28;20197;-43
2022/11/07 01:01:30;;;;;;;16.30;11.05;;;12.50;45.60;;;;;;5054694;28;20640;-42
2022/11/07 01:06:42;;;;;;;13.90;9.23;;;12.50;45.90;;;;;;5054176;28;20710;-44
2022/11/07 01:09:14;;;;;;;14.02;10.05;;;12.50;45.80;;;;;;5054481;28;20196;-43
2022/11/07 01:11:41;;;;;;;13.00;9.60;;;12.50;46.10;;;;;;5054427;28;20154;-42
2022/11/07 01:14:08;;;;;;;13.52;8.70;;;12.50;46.00;;;;;;5054393;28;20173;-41
2022/11/07 01:16:34;;;;;;;13.70;8.65;;;12.50;46.20;;;;;;5052380;28;20208;-43
2022/11/07 01:19:01;;;;;;;13.55;9.23;;;12.50;46.40;;;;;;5054308;28;20800;-43
2022/11/07 01:21:27;;;;;;;17.20;10.90;;;12.50;46.30;;;;;;5054578;28;20209;-44
2022/11/07 01:23:53;;;;;;;14.80;9.30;;;12.40;46.30;;;;;;5054114;28;20596;-42
2022/11/07 01:26:19;;;;;;;18.43;10.43;;;12.40;46.30;;;;;;5053710;28;20519;-42
2022/11/07 01:28:44;;;;;;;17.57;10.07;;;12.50;46.40;;;;;;5052834;28;20177;-44
2022/11/07 01:31:12;;;;;;;16.83;10.70;;;12.50;46.30;;;;;;5054006;28;20491;-44
2022/11/07 01:33:38;;;;;;;19.80;9.85;;;12.50;46.30;;;;;;5054171;28;20161;-43
2022/11/07 01:36:08;;;;;;;19.98;11.10;;;12.50;46.30;;;;;;5053369;28;20282;-43
2022/11/07 01:38:39;;;;;;;15.52;9.77;;;12.50;46.50;;;;;;5053904;28;20242;-43
2022/11/07 01:41:24;;;;;;;15.27;9.90;;;12.40;46.30;;;;;;5053647;28;20708;-43
2022/11/07 01:44:03;;;;;;;16.77;10.35;;;12.40;46.30;;;;;;5054099;28;20204;-44
2022/11/07 01:46:40;;;;;;;14.93;10.80;;;12.40;46.30;;;;;;5053277;28;20208;-45
2022/11/07 01:49:20;;;;;;;17.67;10.05;;;12.40;46.30;;;;;;5053830;28;20214;-42
2022/11/07 01:51:56;;;;;;;16.00;11.18;;;12.40;46.20;;;;;;5053679;28;20227;-44
2022/11/07 01:54:26;;;;;;;18.52;11.50;;;12.40;46.30;;;;;;5053962;28;20169;-43
2022/11/07 01:56:54;;;;;;;18.70;11.60;;;12.40;46.20;;;;;;5052977;28;20181;-43
2022/11/07 01:59:25;;;;;;;19.40;12.13;;;12.30;46.40;;;;;;5053562;28;20181;-43
2022/11/07 02:01:51;;;;;;;22.77;12.60;;;12.20;46.40;;;;;;5053548;28;20244;-44
2022/11/07 02:04:20;;;;;;;16.98;11.45;;;12.30;46.60;;;;;;5053429;28;20177;-42
2022/11/07 02:06:54;;;;;;;17.85;11.10;;;12.30;46.50;;;;;;5052710;28;20209;-41
2022/11/07 02:09:20;;;;;;;16.27;11.63;;;12.30;46.50;;;;;;5053568;28;20204;-40
2022/11/07 02:11:46;;;;;;;19.45;11.52;;;12.30;46.40;;;;;;5053261;28;20640;-41
2022/11/07 02:14:16;;;;;;;24.03;13.27;;;12.30;46.30;;;;;;5053322;28;20180;-42
2022/11/07 02:16:42;;;;;;;17.70;11.07;;;12.30;46.20;;;;;;5052584;28;20500;-42
2022/11/07 02:19:18;;;;;;;20.52;13.02;;;12.20;46.10;;;;;;5053247;28;20230;-41
2022/11/07 02:21:57;;;;;;;16.67;11.60;;;12.10;46.20;;;;;;5053142;28;20520;-42
2022/11/07 02:24:28;;;;;;;16.92;11.27;;;12.10;46.20;;;;;;5053130;28;20161;-41
2022/11/07 02:26:57;;;;;;;17.58;11.32;;;12.10;46.40;;;;;;5052354;28;20201;-42
2022/11/07 02:29:25;;;;;;;21.38;11.20;;;12.10;46.30;;;;;;5052912;28;20173;-41
2022/11/07 02:32:01;;;;;;;17.05;12.05;;;12.10;46.40;;;;;;5052972;28;20180;-42
2022/11/07 02:34:27;;;;;;;16.10;9.75;;;12.00;46.10;;;;;;5052901;28;20196;-41
2022/11/07 02:36:52;;;;;;;21.63;12.20;;;12.00;46.20;;;;;;5052024;28;20233;-41
2022/11/07 02:39:18;;;;;;;15.97;10.10;;;12.00;46.10;;;;;;5053103;28;20640;-42
2022/11/07 02:41:46;;;;;;;17.20;11.10;;;12.00;46.00;;;;;;5060953;23;20921;-43
2022/11/07 02:44:12;;;;;;;19.15;12.80;;;12.00;46.00;;;;;;5032676;28;20250;-47
2022/11/07 02:46:39;;;;;;;20.30;12.35;;;12.00;46.00;;;;;;5032353;28;20202;-44
2022/11/07 02:49:05;;;;;;;22.17;13.10;;;11.90;46.10;;;;;;5032802;28;20249;-45
2022/11/07 02:51:31;;;;;;;21.30;12.85;;;11.80;46.20;;;;;;5032553;28;20225;-44
2022/11/07 02:53:57;;;;;;;20.90;12.40;;;11.80;46.40;;;;;;5032116;28;20216;-45
2022/11/07 02:56:23;;;;;;;19.50;12.50;;;11.80;46.60;;;;;;5032030;28;20415;-45
2022/11/07 02:58:51;;;;;;;17.27;10.55;;;11.70;47.30;;;;;;5032566;28;20412;-44
2022/11/07 03:01:17;;;;;;;19.08;11.93;;;11.70;46.60;;;;;;5032577;28;20251;-44
2022/11/07 03:03:45;;;;;;;21.55;13.00;;;11.70;46.60;;;;;;5032518;28;20190;-44
2022/11/07 03:06:14;;;;;;;22.80;12.73;;;11.70;46.60;;;;;;5031800;28;20205;-44
2022/11/07 03:08:41;;;;;;;22.52;12.88;;;11.70;46.80;;;;;;5032468;28;20181;-45
2022/11/07 03:11:09;;;;;;;19.90;11.38;;;11.70;46.90;;;;;;5032529;28;20257;-44
2022/11/07 03:13:35;;;;;;;22.23;12.77;;;11.60;47.60;;;;;;5032327;28;20170;-45
2022/11/07 03:16:08;;;;;;;22.65;13.60;;;11.60;46.90;;;;;;5031779;28;20182;-44
2022/11/07 03:18:35;;;;;;;18.63;11.77;;;11.60;46.90;;;;;;5032316;28;20201;-44
2022/11/07 03:21:01;;;;;;;21.02;11.70;;;11.60;46.80;;;;;;5032095;28;20174;-46
2022/11/07 03:23:26;;;;;;;19.05;10.73;;;11.50;47.00;;;;;;5032402;28;20170;-46
2022/11/07 03:25:52;;;;;;;21.30;12.20;;;11.50;46.90;;;;;;5031641;28;20174;-44
2022/11/07 03:28:18;;;;;;;22.23;13.13;;;11.50;46.90;;;;;;5032112;28;20276;-44
2022/11/07 03:30:44;;;;;;;18.73;11.27;;;11.50;46.90;;;;;;5032128;28;20174;-45
2022/11/07 03:33:09;;;;;;;17.90;10.83;;;11.50;47.00;;;;;;5030756;28;20197;-44
2022/11/07 03:35:35;;;;;;;20.77;12.80;;;11.40;47.00;;;;;;5031680;28;20709;-45
2022/11/07 03:38:01;;;;;;;15.97;10.80;;;11.40;46.90;;;;;;5032048;28;20180;-47
2022/11/07 03:40:26;;;;;;;18.00;11.03;;;11.40;46.80;;;;;;5032081;28;20220;-44
2022/11/07 03:42:52;;;;;;;18.80;11.87;;;11.40;46.80;;;;;;5031935;28;20684;-44
2022/11/07 03:45:18;;;;;;;16.30;11.80;;;11.40;46.70;;;;;;5031983;28;20495;-43
2022/11/07 03:47:45;;;;;;;20.73;11.70;;;11.40;46.70;;;;;;5031361;28;20448;-45
2022/11/07 03:50:20;;;;;;;17.67;11.30;;;11.40;46.70;;;;;;5032118;28;20754;-46
2022/11/07 03:52:46;;;;;;;19.05;11.57;;;11.40;46.60;;;;;;5031845;28;20189;-45
2022/11/07 03:55:14;;;;;;;22.80;12.80;;;11.40;46.60;;;;;;5031999;28;20166;-45
2022/11/07 03:57:41;;;;;;;20.65;12.13;;;11.40;46.90;;;;;;5031406;28;20178;-45
2022/11/07 04:00:08;;;;;;;16.50;10.57;;;11.40;46.80;;;;;;5032160;28;20186;-44
2022/11/07 04:02:34;;;;;;;18.88;10.93;;;11.40;47.30;;;;;;5031764;28;20201;-44
2022/11/07 04:05:00;;;;;;;23.33;12.20;;;11.40;47.20;;;;;;5034945;28;20637;-44
2022/11/07 04:07:26;;;;;;;18.17;10.80;;;11.40;47.30;;;;;;5033833;28;20209;-45
2022/11/07 04:09:52;;;;;;;19.90;13.10;;;11.40;47.30;;;;;;5035715;28;20638;-45
2022/11/07 04:17:45;;;;;;;23.60;12.77;;;11.50;47.30;;;;;;5035278;28;20185;-44
2022/11/07 04:20:11;;;;;;;19.30;10.23;;;11.50;47.30;;;;;;5035499;28;20182;-45
2022/11/07 04:22:37;;;;;;;17.20;11.73;;;11.50;47.60;;;;;;5034141;28;20273;-45
2022/11/07 04:25:03;;;;;;;20.00;12.00;;;11.60;47.40;;;;;;5035421;28;20688;-45
2022/11/07 04:27:41;;;;;;;19.33;12.93;;;11.70;47.40;;;;;;5034706;28;20244;-45
2022/11/07 04:30:17;;;;;;;17.27;10.80;;;11.70;47.30;;;;;;5035693;28;20180;-45
2022/11/07 04:32:51;;;;;;;23.30;12.65;;;11.80;47.20;;;;;;5035343;28;20268;-45
2022/11/07 04:35:18;;;;;;;20.83;11.45;;;11.80;47.20;;;;;;5034203;28;20178;-45
2022/11/07 04:37:45;;;;;;;17.42;12.00;;;11.80;47.20;;;;;;5034919;28;20224;-44
2022/11/07 04:40:11;;;;;;;18.63;11.90;;;11.80;47.10;;;;;;5035288;28;20260;-45
2022/11/07 04:42:37;;;;;;;19.25;10.30;;;11.80;47.10;;;;;;5035017;28;20209;-45
2022/11/07 04:45:04;;;;;;;16.98;11.05;;;11.90;47.90;;;;;;5035517;28;20174;-43
2022/11/07 04:47:29;;;;;;;20.75;11.52;;;11.80;47.10;;;;;;5034863;28;20648;-45
2022/11/07 04:49:55;;;;;;;18.03;10.00;;;11.90;47.40;;;;;;5034920;28;20182;-45
2022/11/07 04:52:21;;;;;;;20.17;11.00;;;11.80;47.40;;;;;;5034872;28;20205;-45
2022/11/07 04:54:47;;;;;;;18.20;11.03;;;11.80;47.40;;;;;;5034937;28;20197;-45
2022/11/07 04:57:14;;;;;;;19.47;11.10;;;11.80;47.30;;;;;;5034338;28;20428;-44
2022/11/07 04:59:40;;;;;;;21.35;12.15;;;11.90;47.40;;;;;;5035022;28;20251;-45
2022/11/07 05:02:08;;;;;;;18.38;11.23;;;11.90;47.40;;;;;;5035099;28;20596;-44
2022/11/07 05:04:34;;;;;;;20.13;10.85;;;12.00;47.30;;;;;;5035483;28;20178;-44
2022/11/07 05:07:00;;;;;;;21.13;11.13;;;11.90;48.10;;;;;;5035034;28;20738;-44
2022/11/07 05:09:26;;;;;;;16.60;10.73;;;11.90;47.40;;;;;;5035113;28;20437;-44
2022/11/07 05:11:53;;;;;;;17.35;9.85;;;11.90;47.40;;;;;;5035409;28;20273;-44
2022/11/07 05:14:18;;;;;;;14.10;11.38;;;12.00;47.40;;;;;;5035712;28;20197;-45
2022/11/07 05:16:45;;;;;;;20.08;11.50;;;12.00;47.40;;;;;;5033844;28;20680;-44
2022/11/07 05:19:20;;;;;;;15.80;10.80;;;12.00;47.30;;;;;;5034387;28;20185;-45
2022/11/07 05:21:46;;;;;;;16.70;11.20;;;12.00;47.30;;;;;;5034445;28;20482;-45
2022/11/07 05:24:13;;;;;;;18.67;11.27;;;12.00;47.40;;;;;;5034355;28;20176;-45
2022/11/07 05:26:38;;;;;;;18.92;11.00;;;12.00;47.40;;;;;;5033636;28;20273;-45
2022/11/07 05:29:07;;;;;;;15.23;10.17;;;12.00;47.40;;;;;;5034257;28;20252;-45
2022/11/07 05:31:34;;;;;;;14.57;10.45;;;12.00;47.40;;;;;;5034018;28;20952;-45
2022/11/07 05:33:59;;;;;;;17.40;10.00;;;12.10;47.60;;;;;;5034049;28;20270;-44
2022/11/07 05:36:25;;;;;;;16.70;11.20;;;12.10;47.50;;;;;;5033905;28;20205;-45
2022/11/07 05:38:52;;;;;;;15.40;10.53;;;12.10;47.40;;;;;;5034034;28;20273;-46
2022/11/07 05:41:20;;;;;;;17.95;10.38;;;12.10;47.30;;;;;;5033800;28;20194;-45
2022/11/07 05:43:47;;;;;;;17.00;12.15;;;12.10;47.30;;;;;;5033953;28;20178;-44
2022/11/07 05:46:13;;;;;;;16.73;11.20;;;12.10;47.30;;;;;;5033401;28;20646;-45
2022/11/07 05:48:39;;;;;;;17.55;12.68;;;12.10;47.30;;;;;;5033664;28;20205;-45
2022/11/07 05:51:06;;;;;;;15.00;11.70;;;12.10;47.30;;;;;;5033784;28;20166;-45
2022/11/07 05:53:32;;;;;;;19.90;11.15;;;12.10;47.40;;;;;;5033802;28;20181;-45
2022/11/07 05:55:57;;;;;;;15.97;10.50;;;12.10;47.30;;;;;;5033290;28;20174;-45
2022/11/07 05:58:23;;;;;;;18.10;12.37;;;12.10;47.30;;;;;;5033792;28;20413;-45
2022/11/07 06:00:49;;;;;;;16.13;11.20;;;12.00;47.20;;;;;;5033536;28;20638;-45
2022/11/07 06:03:16;;;;;;;27.47;12.40;;;11.90;47.30;;;;;;5033690;28;20212;-45
2022/11/07 06:05:42;;;;;;;15.80;12.13;;;11.90;47.50;;;;;;5032833;28;20697;-44
2022/11/07 06:08:11;;;;;;;15.73;11.52;;;11.80;47.30;;;;;;5033338;28;20237;-45
2022/11/07 06:10:37;;;;;;;18.60;12.75;;;11.80;47.50;;;;;;5033545;28;20248;-45
2022/11/07 06:13:06;;;;;;;15.88;11.20;;;11.70;47.40;;;;;;5033332;28;20650;-45
2022/11/07 06:15:34;;;;;;;21.15;12.68;;;11.70;47.50;;;;;;5032920;28;20232;-45
2022/11/07 06:18:02;;;;;;;19.15;12.68;;;11.70;47.60;;;;;;5031896;28;20580;-45
2022/11/07 06:20:29;;;;;;;20.23;12.55;;;11.70;47.50;;;;;;5033208;28;20170;-45
2022/11/07 06:22:58;;;;;;;20.35;12.63;;;11.60;47.60;;;;;;5033181;28;20216;-44
2022/11/07 06:25:24;;;;;;;16.38;12.20;;;11.60;47.90;;;;;;5033148;28;20185;-45
2022/11/07 06:27:50;;;;;;;22.63;12.20;;;11.60;48.20;;;;;;5032183;28;20719;-45
2022/11/07 06:30:16;;;;;;;14.97;10.10;;;11.50;48.30;;;;;;5033015;28;20174;-45
2022/11/07 06:32:44;;;;;;;20.73;12.67;;;11.60;48.40;;;;;;5032833;28;20433;-45
2022/11/07 06:35:11;;;;;;;20.27;12.23;;;11.70;48.50;;;;;;5033190;28;20492;-45
2022/11/07 06:37:37;;;;;;;16.95;12.18;;;11.70;48.20;;;;;;5032631;28;20193;-45
2022/11/07 06:40:04;;;;;;;16.70;10.57;;;11.90;48.10;;;;;;5032778;28;20622;-45
2022/11/07 06:42:31;;;;;;;18.05;11.98;;;12.30;48.00;;;;;;5031537;28;20324;-44
2022/11/07 06:44:56;;;;;;;17.40;12.43;;;12.60;47.60;;;;;;5032606;28;20184;-45
2022/11/07 06:47:22;;;;;;;17.90;11.60;;;13.00;46.90;;;;;;5032222;28;20210;-45
2022/11/07 06:49:48;;;;;;;18.60;12.97;;;13.40;46.30;;;;;;5031399;28;20629;-47
2022/11/07 06:52:14;;;;;;;17.77;11.60;;;13.80;45.50;;;;;;5032643;28;20193;-45
2022/11/07 06:54:39;;;;;;;17.57;13.20;;;14.20;44.90;;;;;;5032697;28;20272;-45
2022/11/07 06:57:05;;;;;;;17.20;12.37;;;14.10;43.40;;;;;;5032087;28;20645;-45
2022/11/07 06:59:31;;;;;;;15.93;11.20;;;13.90;42.90;;;;;;5032479;28;20181;-46
2022/11/07 07:01:57;;;;;;;19.63;10.70;;;13.70;43.30;;;;;;5032359;28;20276;-45
2022/11/07 07:04:22;;;;;;;15.87;10.60;;;13.50;43.60;;;;;;5032543;28;20315;-45
2022/11/07 07:06:48;;;;;;;13.90;10.40;;;13.30;44.10;;;;;;5031726;28;20197;-45
2022/11/07 07:09:14;;;;;;;17.80;11.47;;;13.10;44.50;;;;;;5032503;28;20170;-45
2022/11/07 07:11:41;;;;;;;17.27;10.67;;;13.00;44.70;;;;;;5032323;28;20197;-45
2022/11/07 07:14:07;;;;;;;17.23;11.57;;;12.90;45.20;;;;;;5032269;28;20170;-45
2022/11/07 07:16:33;;;;;;;18.58;11.70;;;12.80;45.40;;;;;;5031875;28;20174;-45
2022/11/07 07:18:59;;;;;;;16.57;11.67;;;12.80;45.50;;;;;;5032330;28;20530;-44
2022/11/07 07:21:25;;;;;;;15.30;10.80;;;12.70;45.60;;;;;;5032510;28;20433;-45
2022/11/07 07:23:51;;;;;;;17.90;10.50;;;12.70;46.00;;;;;;5032155;28;20181;-44
2022/11/07 07:26:17;;;;;;;17.35;10.82;;;12.70;46.10;;;;;;5031898;28;20478;-45
2022/11/07 07:28:43;;;;;;;15.57;9.20;;;12.70;46.10;;;;;;5032055;28;20542;-45
2022/11/07 07:31:14;;;;;;;15.83;10.13;;;12.70;46.10;;;;;;5032305;28;20174;-45
2022/11/07 07:33:41;;;;;;;14.95;10.98;;;12.70;46.30;;;;;;5032270;28;20174;-45
2022/11/07 07:36:08;;;;;;;14.85;9.35;;;12.70;46.40;;;;;;5031575;28;20184;-45
2022/11/07 07:38:34;;;;;;;16.90;10.30;;;12.70;46.60;;;;;;5031751;28;20174;-45
2022/11/07 07:41:00;;;;;;;13.02;8.60;;;12.70;46.70;;;;;;5031829;28;20207;-45
2022/11/07 07:43:27;;;;;;;16.17;11.02;;;12.80;46.60;;;;;;5031822;28;20191;-45
2022/11/07 07:45:56;;;;;;;18.90;11.60;;;12.80;46.50;;;;;;5031561;28;20581;-44
2022/11/07 07:48:22;;;;;;;14.27;9.70;;;12.90;46.40;;;;;;5031953;28;20200;-44
2022/11/07 07:50:48;;;;;;;20.10;12.60;;;12.90;46.40;;;;;;5031984;28;20177;-45
2022/11/07 07:53:15;;;;;;;15.68;9.65;;;12.90;46.30;;;;;;5031801;28;20198;-44
2022/11/07 07:55:40;;;;;;;15.98;10.15;;;12.80;46.30;;;;;;5031174;28;20174;-44
2022/11/07 07:58:06;;;;;;;17.10;11.97;;;12.80;46.50;;;;;;5032046;28;20173;-45
2022/11/07 08:00:32;;;;;;;15.37;9.47;;;12.90;46.50;;;;;;5032184;28;20642;-44
2022/11/07 08:03:14;;;;;;;16.42;10.40;;;13.00;46.40;;;;;;5032014;28;20217;-45
2022/11/07 08:05:40;;;;;;;12.75;9.45;;;13.10;46.50;;;;;;5031337;28;20177;-45
2022/11/07 08:08:07;;;;;;;10.90;9.10;;;13.20;46.60;;;;;;5031612;28;20688;-44
2022/11/07 08:10:33;;;;;;;18.10;9.32;;;13.40;46.60;;;;;;5032011;28;20170;-45
2022/11/07 08:12:59;;;;;;;13.10;9.43;;;13.90;46.20;;;;;;5031653;28;20197;-44
2022/11/07 08:15:25;;;;;;;18.60;11.30;;;14.30;45.50;;;;;;5031512;28;20424;-44
2022/11/07 08:17:51;;;;;;;13.63;8.77;;;14.50;45.20;;;;;;5031160;28;20178;-45
2022/11/07 08:20:26;;;;;;;16.43;8.47;;;14.70;45.00;;;;;;5031625;28;20188;-45
2022/11/07 08:22:59;;;;;;;14.38;9.93;;;15.00;44.80;;;;;;5031524;28;20923;-45
2022/11/07 08:25:25;;;;;;;12.23;8.30;;;15.10;43.90;;;;;;5031507;28;20239;-44
2022/11/07 08:27:52;;;;;;;9.83;6.53;;;15.30;43.90;;;;;;5031173;28;20241;-45
2022/11/07 08:30:18;;;;;;;11.02;6.80;;;15.50;43.10;;;;;;5031708;28;20167;-46
2022/11/07 08:32:44;;;;;;;7.97;6.50;;;15.80;42.80;;;;;;5031957;28;20518;-44
2022/11/07 08:35:09;;;;;;;10.67;6.87;;;16.10;41.90;;;;;;5031526;28;20547;-45
2022/11/07 08:37:36;;;;;;;12.83;8.20;;;16.30;41.40;;;;;;5031023;28;20546;-44
2022/11/07 08:40:02;;;;;;;11.23;7.55;;;16.50;40.80;;;;;;5031794;28;20182;-45
2022/11/07 08:42:28;;;;;;;11.10;7.43;;;16.70;41.10;;;;;;5031300;28;20245;-44
2022/11/07 08:44:54;;;;;;;9.23;7.10;;;16.90;40.80;;;;;;5032750;28;20187;-45
2022/11/07 08:47:19;;;;;;;7.97;6.13;;;17.60;40.20;;;;;;5031439;28;20221;-45
2022/11/07 08:49:45;;;;;;;8.80;6.77;;;18.30;39.00;;;;;;5032411;28;20700;-44
2022/11/07 08:52:11;;;;;;;6.70;5.10;;;18.80;37.30;;;;;;5041566;28;20194;-46
2022/11/07 08:54:36;;;;;;;7.43;5.97;;;19.10;35.80;;;;;;5042200;28;20201;-45
2022/11/07 08:57:02;;;;;;;7.80;4.73;;;19.10;36.40;;;;;;5042093;28;20189;-45
2022/11/07 08:59:28;;;;;;;13.00;6.60;;;19.10;37.00;;;;;;5042046;28;20181;-45
2022/11/07 09:01:54;;;;;;;4.73;3.93;;;19.10;37.00;;;;;;5040160;28;20194;-45
2022/11/07 09:04:20;;;;;;;7.07;4.47;;;19.20;37.10;;;;;;5035348;28;20197;-45
2022/11/07 09:06:45;;;;;;;7.50;5.73;;;19.10;36.40;;;;;;5034260;28;20264;-46
2022/11/07 09:09:11;;;;;;;6.03;4.63;;;18.90;36.10;;;;;;5034774;28;20177;-46
2022/11/07 09:11:37;;;;;;;7.50;5.03;;;18.70;37.00;;;;;;5034774;28;20186;-47
2022/11/07 09:14:03;;;;;;;6.67;4.00;;;18.60;37.80;;;;;;5077930;23;20256;-40
2022/11/07 09:16:29;;;;;;;7.70;4.20;;;18.40;37.30;;;;;;5053551;28;20412;-41
2022/11/07 09:18:55;;;;;;;5.73;3.90;;;18.50;37.50;;;;;;5054462;28;20261;-42
2022/11/07 09:21:20;;;;;;;8.90;3.93;;;18.30;37.70;;;;;;5054392;28;20161;-43
2022/11/07 09:23:46;;;;;;;5.43;3.40;;;18.30;37.70;;;;;;5054226;28;20181;-42
2022/11/07 09:26:12;;;;;;;9.27;3.83;;;18.20;37.80;;;;;;5053777;28;20169;-41
2022/11/07 09:28:37;;;;;;;10.87;3.93;;;18.10;37.90;;;;;;5054376;28;20287;-42
2022/11/07 09:31:05;;;;;;;7.07;5.10;;;18.10;38.30;;;;;;5054083;28;20184;-42
2022/11/07 09:33:31;;;;;;;7.75;4.50;;;18.00;38.30;;;;;;5053978;28;20269;-43
2022/11/07 09:36:04;;;;;;;5.20;3.92;;;18.00;38.50;;;;;;5053466;28;20170;-44
2022/11/07 09:38:30;;;;;;;10.88;5.13;;;18.00;39.00;;;;;;5054029;28;20176;-44
2022/11/07 09:41:05;;;;;;;6.30;4.10;;;18.00;39.20;;;;;;5054109;28;20181;-44
2022/11/07 09:43:40;;;;;;;4.32;3.45;;;18.10;39.20;;;;;;5053844;28;20247;-44
2022/11/07 09:46:31;;;;;;;5.55;4.10;;;18.30;39.60;;;;;;5053259;28;20200;-44
2022/11/07 09:49:02;;;;;;;6.55;4.60;;;18.40;38.50;;;;;;5054108;28;20181;-44
2022/11/07 09:51:41;;;;;;;5.97;3.55;;;18.40;38.50;;;;;;5053862;28;20169;-43
2022/11/07 09:54:17;;;;;;;7.30;3.97;;;18.80;38.80;;;;;;5053614;28;20204;-44
2022/11/07 09:56:43;;;;;;;5.13;3.10;;;19.40;37.70;;;;;;5053328;28;20162;-44
2022/11/07 09:59:30;;;;;;;5.45;2.90;;;20.00;37.60;;;;;;5053604;28;20169;-46
2022/11/07 10:01:56;;;;;;;4.53;2.95;;;20.80;35.40;;;;;;5053489;28;20165;-44
2022/11/07 10:04:22;;;;;;;3.75;3.17;;;21.10;34.40;;;;;;5053454;28;20193;-44
2022/11/07 10:07:01;;;;;;;5.20;2.73;;;21.10;34.50;;;;;;5052771;28;20257;-43
2022/11/07 10:09:52;;;;;;;5.03;3.33;;;21.00;33.70;;;;;;5053144;28;20396;-44
2022/11/07 10:12:41;;;;;;;3.92;2.50;;;21.00;34.30;;;;;;5053211;28;20580;-45
2022/11/07 10:15:46;;;;;;;3.42;2.55;;;21.00;34.60;;;;;;5053308;28;20169;-43
2022/11/07 10:18:27;;;;;;;2.92;1.35;;;21.00;34.10;;;;;;5052072;28;20180;-45
2022/11/07 10:20:55;;;;;;;3.38;1.42;;;20.80;33.90;;;;;;5053333;28;20176;-43
2022/11/07 10:23:45;;;;;;;4.95;1.30;;;20.80;34.10;;;;;;5052972;28;20189;-44
2022/11/07 10:26:14;;;;;;;5.97;1.85;;;21.20;34.50;;;;;;5052739;28;20173;-44
2022/11/07 10:29:08;;;;;;;3.53;1.50;;;21.30;34.60;;;;;;5053046;28;20213;-43
2022/11/07 10:31:39;;;;;;;2.63;1.50;;;21.20;32.70;;;;;;5052439;28;20189;-45
2022/11/07 10:34:33;;;;;;;2.85;1.50;;;20.80;33.50;;;;;;5053092;28;20201;-44
2022/11/07 10:36:59;;;;;;;4.90;1.25;;;20.70;34.60;;;;;;5052419;28;20575;-43
2022/11/07 10:39:25;;;;;;;3.80;1.90;;;20.40;34.00;;;;;;5052899;28;20644;-44
2022/11/07 10:42:04;;;;;;;4.83;1.50;;;20.30;33.50;;;;;;5052713;28;20537;-43
2022/11/07 10:44:31;;;;;;;5.55;1.98;;;20.10;34.10;;;;;;5052917;28;20193;-43
2022/11/07 10:46:57;;;;;;;3.70;1.98;;;20.00;34.70;;;;;;5052209;28;20197;-44
2022/11/07 10:49:25;;;;;;;2.50;1.60;;;20.10;33.20;;;;;;5052780;28;20165;-44
2022/11/07 10:51:53;;;;;;;3.92;1.40;;;20.00;34.70;;;;;;5052861;28;20166;-45
2022/11/07 10:54:20;;;;;;;6.65;2.22;;;20.00;34.70;;;;;;5052500;28;20188;-45
2022/11/07 10:56:58;;;;;;;7.10;1.80;;;20.10;35.00;;;;;;5051806;28;20242;-44
2022/11/07 10:59:28;;;;;;;4.25;2.00;;;20.10;34.30;;;;;;5052509;28;20794;-45
2022/11/07 11:01:57;;;;;;;3.05;1.65;;;20.20;34.60;;;;;;5052433;28;20165;-43
2022/11/07 11:04:28;;;;;;;3.17;1.50;;;20.20;34.20;;;;;;5052359;28;20208;-44
2022/11/07 11:07:02;;;;;;;3.45;1.30;;;20.40;34.20;;;;;;5051822;28;20181;-44
2022/11/07 11:09:34;;;;;;;10.07;1.58;;;20.40;33.60;;;;;;5052663;28;20169;-45
2022/11/07 11:12:11;;;;;;;4.20;1.80;;;20.30;33.10;;;;;;5052312;28;20637;-44
2022/11/07 11:14:37;;;;;;;8.43;1.70;;;20.30;33.30;;;;;;5051641;28;20209;-43
2022/11/07 11:17:03;;;;;;;3.35;1.73;;;20.10;34.00;;;;;;5050362;28;20234;-42
2022/11/07 11:19:39;;;;;;;4.35;2.03;;;20.20;34.20;;;;;;5052126;28;20177;-45
2022/11/07 11:22:14;;;;;;;3.88;1.50;;;20.20;33.40;;;;;;5051009;28;20173;-44
2022/11/07 11:24:40;;;;;;;7.60;2.40;;;20.20;32.90;;;;;;5052077;28;20529;-45
2022/11/07 11:27:19;;;;;;;4.80;1.67;;;20.30;34.20;;;;;;5051469;28;20290;-46
2022/11/07 11:30:09;;;;;;;6.30;1.90;;;20.50;33.10;;;;;;5052117;28;20419;-44
2022/11/07 11:32:42;;;;;;;2.50;1.33;;;20.50;32.30;;;;;;5051939;28;20801;-44
2022/11/07 11:35:26;;;;;;;5.65;2.05;;;20.60;34.20;;;;;;5052096;28;20399;-45
2022/11/07 11:38:16;;;;;;;6.75;1.70;;;20.70;33.00;;;;;;5051516;28;20736;-44
2022/11/07 11:40:48;;;;;;;2.87;1.60;;;20.90;33.90;;;;;;5052059;28;20549;-44
2022/11/07 11:43:14;;;;;;;2.13;1.47;;;21.20;33.10;;;;;;5051890;28;20511;-44
2022/11/07 11:45:39;;;;;;;8.77;1.67;;;21.80;31.90;;;;;;5051551;28;20495;-43
2022/11/07 11:48:23;;;;;;;2.70;1.53;;;22.20;32.20;;;;;;5051880;28;20271;-44
2022/11/07 11:50:56;;;;;;;3.83;1.70;;;22.30;31.20;;;;;;5051974;28;20161;-46
2022/11/07 11:53:22;;;;;;;2.33;1.50;;;22.40;29.80;;;;;;5051730;28;20939;-45
2022/11/07 11:56:05;;;;;;;2.80;1.53;;;22.20;31.70;;;;;;5051256;28;20403;-45
2022/11/07 11:58:55;;;;;;;3.27;1.77;;;22.20;31.40;;;;;;5052074;28;20426;-45
2022/11/07 12:01:47;;;;;;;4.93;1.40;;;22.00;31.70;;;;;;5051760;28;20402;-44
2022/11/07 12:04:57;;;;;;;2.03;1.00;;;21.60;30.30;;;;;;5051664;28;20428;-45
2022/11/07 12:07:49;;;;;;;4.93;1.60;;;21.20;31.30;;;;;;5042604;28;20475;-46
2022/11/07 12:10:53;;;;;;;3.45;1.60;;;20.70;32.10;;;;;;5052226;28;20408;-43
2022/11/07 12:13:35;;;;;;;2.38;1.30;;;20.40;33.00;;;;;;5039203;28;20695;-44
2022/11/07 12:16:19;;;;;;;8.20;1.37;;;20.20;33.30;;;;;;5051055;28;20164;-44
2022/11/07 12:19:08;;;;;;;3.30;2.00;;;20.00;32.90;;;;;;5051592;28;20407;-43
2022/11/07 12:22:18;;;;;;;3.90;1.83;;;19.90;34.20;;;;;;5048423;28;20426;-44
2022/11/07 12:25:01;;;;;;;3.58;1.38;;;19.80;34.10;;;;;;5050804;28;20193;-43
2022/11/07 12:27:45;;;;;;;3.67;1.55;;;19.70;35.10;;;;;;5054702;28;20271;-43
2022/11/07 12:30:21;;;;;;;3.72;2.05;;;19.60;34.50;;;;;;5055376;28;20142;-45
2022/11/07 12:33:01;;;;;;;3.03;1.58;;;19.50;34.60;;;;;;5055148;28;20553;-44
2022/11/07 12:35:34;;;;;;;1.75;1.20;;;19.40;34.40;;;;;;5055194;28;20192;-44
2022/11/07 12:38:34;;;;;;;1.67;1.15;;;19.40;34.80;;;;;;5055189;28;20185;-44
2022/11/07 12:41:10;;;;;;;2.63;1.27;;;19.30;35.20;;;;;;5055080;28;20177;-45
2022/11/07 12:44:08;;;;;;;5.60;1.77;;;19.30;34.60;;;;;;5054931;28;20184;-44
2022/11/07 12:46:47;;;;;;;6.95;1.90;;;19.20;35.30;;;;;;5042231;28;20185;-43
2022/11/07 12:49:50;;;;;;;4.95;1.70;;;19.30;35.40;;;;;;5054871;28;20651;-45
2022/11/07 12:52:48;;;;;;;1.70;0.80;;;19.40;35.90;;;;;;5054848;28;20637;-44
2022/11/07 12:55:35;;;;;;;4.78;1.70;;;19.50;36.30;;;;;;5054778;28;20174;-45
2022/11/07 12:58:02;;;;;;;5.05;1.80;;;19.60;36.10;;;;;;5054856;28;20595;-44